createdAt,value
2017-06-24T00:01:20.459Z,8.07
2017-06-24T00:03:47.959Z,8.60
2017-06-24T00:06:15.477Z,8.50
2017-06-24T00:08:44.000Z,8.33
2017-06-24T00:11:11.521Z,7.70
2017-06-24T00:13:39.030Z,8.80
2017-06-24T00:16:06.566Z,10.13
2017-06-24T00:18:34.085Z,8.30
2017-06-24T00:21:01.603Z,8.27
2017-06-24T00:23:29.089Z,9.70
2017-06-24T00:25:57.385Z,9.00
2017-06-24T00:28:24.872Z,9.03
2017-06-24T00:30:52.381Z,9.70
2017-06-24T00:33:20.644Z,9.60
2017-06-24T00:35:48.170Z,9.20
2017-06-24T00:38:15.666Z,9.77
2017-06-24T00:40:43.188Z,8.80
2017-06-24T00:43:10.673Z,9.07
2017-06-24T00:45:38.183Z,9.10
2017-06-24T00:48:05.684Z,8.23
2017-06-24T00:50:33.195Z,7.97
2017-06-24T00:53:00.696Z,8.03
2017-06-24T00:55:28.214Z,9.53
2017-06-24T00:57:55.724Z,7.60
2017-06-24T01:00:23.256Z,8.27
2017-06-24T01:02:50.748Z,7.90
2017-06-24T01:05:18.270Z,7.93
2017-06-24T01:07:45.788Z,8.30
2017-06-24T01:10:14.065Z,7.80
2017-06-24T01:12:41.556Z,8.60
2017-06-24T01:15:09.064Z,7.83
2017-06-24T01:17:36.556Z,7.73
2017-06-24T01:20:04.068Z,7.73
2017-06-24T01:22:31.570Z,7.60
2017-06-24T01:24:59.084Z,7.50
2017-06-24T01:27:26.571Z,7.30
2017-06-24T01:29:54.843Z,7.67
2017-06-24T01:32:22.327Z,7.50
2017-06-24T01:34:49.836Z,7.17
2017-06-24T01:37:17.323Z,7.83
2017-06-24T01:39:44.845Z,7.73
2017-06-24T01:42:12.332Z,7.70
2017-06-24T01:44:39.871Z,7.60
2017-06-24T01:47:07.364Z,6.87
2017-06-24T01:49:35.642Z,7.20
2017-06-24T01:52:03.904Z,6.90
2017-06-24T01:54:31.412Z,7.67
2017-06-24T01:56:58.899Z,7.23
2017-06-24T01:59:26.407Z,7.57
2017-06-24T02:01:53.900Z,7.33
2017-06-24T02:04:21.452Z,7.50
2017-06-24T02:06:48.940Z,6.53
2017-06-24T02:09:16.451Z,7.43
2017-06-24T02:11:43.935Z,6.63
2017-06-24T02:14:11.451Z,6.40
2017-06-24T02:16:39.704Z,7.07
2017-06-24T02:19:07.211Z,7.23
2017-06-24T02:21:34.701Z,7.23
2017-06-24T02:24:02.207Z,7.90
2017-06-24T02:26:30.456Z,7.27
2017-06-24T02:28:57.963Z,8.10
2017-06-24T02:31:25.455Z,8.30
2017-06-24T02:33:52.972Z,7.93
2017-06-24T02:36:21.232Z,7.60
2017-06-24T02:38:49.516Z,6.30
2017-06-24T02:41:17.783Z,7.73
2017-06-24T02:43:45.267Z,7.70
2017-06-24T02:46:12.790Z,8.13
2017-06-24T02:48:40.280Z,9.43
2017-06-24T02:51:08.560Z,8.83
2017-06-24T02:53:36.808Z,8.37
2017-06-24T02:56:04.313Z,7.87
2017-06-24T02:58:31.807Z,7.57
2017-06-24T03:00:59.333Z,9.70
2017-06-24T03:03:26.828Z,9.00
2017-06-24T03:05:54.339Z,8.40
2017-06-24T03:08:21.844Z,8.20
2017-06-24T03:10:49.364Z,8.93
2017-06-24T03:13:16.868Z,9.20
2017-06-24T03:15:44.379Z,8.30
2017-06-24T03:18:11.880Z,9.23
2017-06-24T03:20:39.415Z,8.00
2017-06-24T03:23:06.921Z,7.87
2017-06-24T03:25:34.432Z,8.20
2017-06-24T03:28:01.919Z,8.77
2017-06-24T03:30:29.428Z,8.17
2017-06-24T03:32:56.911Z,7.70
2017-06-24T03:35:24.429Z,8.10
2017-06-24T03:37:52.688Z,7.97
2017-06-24T03:40:20.205Z,8.20
2017-06-24T03:42:47.732Z,7.90
2017-06-24T03:45:16.020Z,8.43
2017-06-24T03:47:43.529Z,8.73
2017-06-24T03:50:11.040Z,8.47
2017-06-24T03:52:38.535Z,8.63
2017-06-24T03:55:06.035Z,9.03
2017-06-24T03:57:33.549Z,8.40
2017-06-24T04:00:01.072Z,8.07
2017-06-24T04:02:28.596Z,8.80
2017-06-24T04:04:56.104Z,8.83
2017-06-24T04:07:23.589Z,8.33
2017-06-24T04:09:51.091Z,9.77
2017-06-24T04:12:19.340Z,9.17
2017-06-24T04:14:46.844Z,9.70
2017-06-24T04:17:15.092Z,8.90
2017-06-24T04:19:42.609Z,8.83
2017-06-24T04:22:10.100Z,9.10
2017-06-24T04:24:37.632Z,8.33
2017-06-24T04:27:05.122Z,9.17
2017-06-24T04:29:32.628Z,8.70
2017-06-24T04:32:00.139Z,9.63
2017-06-24T04:34:27.676Z,9.80
2017-06-24T04:36:55.186Z,8.90
2017-06-24T04:39:23.462Z,8.60
2017-06-24T04:41:50.963Z,8.37
2017-06-24T04:44:18.486Z,8.53
2017-06-24T04:46:46.767Z,8.40
2017-06-24T04:49:14.279Z,8.80
2017-06-24T04:51:41.768Z,8.47
2017-06-24T04:54:10.046Z,8.33
2017-06-24T04:56:37.536Z,8.53
2017-06-24T04:59:05.039Z,9.43
2017-06-24T05:01:32.524Z,9.20
2017-06-24T05:04:00.803Z,9.53
2017-06-24T05:06:29.056Z,8.80
2017-06-24T05:08:56.577Z,8.67
2017-06-24T05:11:24.085Z,8.27
2017-06-24T05:13:51.601Z,8.10
2017-06-24T05:16:19.089Z,8.23
2017-06-24T05:18:46.602Z,7.90
2017-06-24T05:21:14.096Z,8.90
2017-06-24T05:23:41.603Z,8.50
2017-06-24T05:26:09.860Z,7.80
2017-06-24T05:28:37.365Z,9.37
2017-06-24T05:31:04.845Z,8.20
2017-06-24T05:33:32.353Z,9.30
2017-06-24T05:36:00.607Z,8.53
2017-06-24T05:38:28.116Z,7.43
2017-06-24T05:40:55.599Z,7.93
2017-06-24T05:43:23.108Z,8.90
2017-06-24T05:45:51.584Z,9.47
2017-06-24T05:48:19.091Z,8.73
2017-06-24T05:50:46.596Z,8.90
2017-06-24T05:53:14.105Z,8.43
2017-06-24T05:55:41.595Z,9.03
2017-06-24T05:58:09.119Z,8.47
2017-06-24T06:00:37.551Z,8.43
2017-06-24T06:03:05.060Z,8.50
2017-06-24T06:05:32.552Z,8.80
2017-06-24T06:08:00.057Z,9.00
2017-06-24T06:10:27.549Z,8.10
2017-06-24T06:12:55.080Z,8.07
2017-06-24T06:15:22.567Z,8.70
2017-06-24T06:17:50.082Z,8.20
2017-06-24T06:20:17.572Z,7.97
2017-06-24T06:22:45.071Z,7.73
2017-06-24T06:25:12.563Z,8.73
2017-06-24T06:27:40.883Z,7.90
2017-06-24T06:30:08.371Z,7.70
2017-06-24T06:32:35.872Z,7.77
2017-06-24T06:35:03.359Z,7.93
2017-06-24T06:37:30.907Z,9.03
2017-06-24T06:39:58.392Z,8.10
2017-06-24T06:42:25.904Z,7.77
2017-06-24T06:44:53.397Z,8.80
2017-06-24T06:47:20.916Z,8.23
2017-06-24T06:49:49.177Z,7.43
2017-06-24T06:52:17.460Z,7.87
2017-06-24T06:54:45.765Z,7.37
2017-06-24T06:57:13.273Z,7.40
2017-06-24T06:59:40.776Z,8.37
2017-06-24T07:02:08.279Z,7.43
2017-06-24T07:04:35.788Z,8.30
2017-06-24T07:07:04.060Z,7.47
2017-06-24T07:09:32.313Z,8.20
2017-06-24T07:11:59.831Z,7.40
2017-06-24T07:14:27.319Z,7.90
2017-06-24T07:16:54.827Z,7.97
2017-06-24T07:19:22.315Z,7.53
2017-06-24T07:21:49.823Z,7.70
2017-06-24T07:24:18.075Z,7.43
2017-06-24T07:26:45.584Z,7.27
2017-06-24T07:29:13.083Z,7.33
2017-06-24T07:31:40.568Z,7.70
2017-06-24T07:34:08.081Z,7.63
2017-06-24T07:36:35.580Z,8.00
2017-06-24T07:39:03.099Z,7.03
2017-06-24T07:41:30.599Z,8.10
2017-06-24T07:43:58.120Z,8.00
2017-06-24T07:46:25.616Z,7.57
2017-06-24T07:48:53.123Z,6.70
2017-06-24T07:51:20.675Z,8.10
2017-06-24T07:53:48.188Z,7.90
2017-06-24T07:56:15.671Z,6.93
2017-06-24T07:58:43.951Z,7.03
2017-06-24T08:01:12.215Z,6.20
2017-06-24T08:03:39.735Z,7.27
2017-06-24T08:06:07.219Z,7.03
2017-06-24T08:08:34.727Z,6.63
2017-06-24T08:11:02.213Z,5.90
2017-06-24T08:13:29.716Z,6.00
2017-06-24T08:15:57.972Z,6.67
2017-06-24T08:18:25.487Z,7.30
2017-06-24T08:20:53.006Z,6.10
2017-06-24T08:23:20.513Z,6.53
2017-06-24T08:25:48.013Z,6.10
2017-06-24T08:28:15.519Z,6.40
2017-06-24T08:30:43.000Z,5.50
2017-06-24T08:33:10.507Z,6.13
2017-06-24T08:35:37.999Z,5.33
2017-06-24T08:38:05.507Z,5.53
2017-06-24T08:40:33.096Z,5.50
2017-06-24T08:43:00.612Z,5.87
2017-06-24T08:45:28.100Z,5.30
2017-06-24T08:47:55.637Z,4.90
2017-06-24T08:50:23.162Z,5.33
2017-06-24T08:52:50.709Z,5.67
2017-06-24T08:55:18.203Z,5.80
2017-06-24T08:57:45.713Z,5.90
2017-06-24T09:00:13.964Z,5.80
2017-06-24T09:02:41.500Z,5.80
2017-06-24T09:05:09.005Z,6.77
2017-06-24T09:07:37.285Z,5.50
2017-06-24T09:10:05.545Z,6.00
2017-06-24T09:12:33.051Z,6.20
2017-06-24T09:15:00.617Z,5.83
2017-06-24T09:17:28.124Z,6.30
2017-06-24T09:19:55.623Z,6.73
2017-06-24T09:22:23.130Z,7.10
2017-06-24T09:24:50.674Z,5.53
2017-06-24T09:27:18.180Z,5.47
2017-06-24T09:29:46.452Z,6.10
2017-06-24T09:32:13.986Z,6.37
2017-06-24T09:34:41.472Z,6.23
2017-06-24T09:37:09.749Z,6.23
2017-06-24T09:39:37.263Z,5.83
2017-06-24T09:42:04.781Z,5.87
2017-06-24T09:44:32.275Z,5.57
2017-06-24T09:47:00.138Z,6.07
2017-06-24T09:49:27.632Z,6.13
2017-06-24T09:51:55.152Z,6.40
2017-06-24T09:54:22.654Z,6.70
2017-06-24T09:56:50.171Z,6.13
2017-06-24T09:59:17.659Z,7.03
2017-06-24T10:01:51.244Z,5.83
2017-06-24T10:04:18.728Z,6.27
2017-06-24T10:06:46.340Z,7.03
2017-06-24T10:09:13.838Z,6.40
2017-06-24T10:11:41.365Z,7.20
2017-06-24T10:14:21.497Z,6.47
2017-06-24T10:16:52.485Z,7.00
2017-06-24T10:19:19.980Z,6.97
2017-06-24T10:21:48.300Z,6.60
2017-06-24T10:24:15.787Z,6.53
2017-06-24T10:26:43.297Z,6.50
2017-06-24T10:29:10.785Z,6.13
2017-06-24T10:31:38.297Z,7.07
2017-06-24T10:34:05.795Z,6.10
2017-06-24T10:36:33.317Z,6.67
2017-06-24T10:39:01.569Z,5.80
2017-06-24T10:41:29.080Z,6.10
2017-06-24T10:43:56.709Z,7.40
2017-06-24T10:46:24.266Z,7.03
2017-06-24T10:48:51.783Z,6.50
2017-06-24T10:51:19.567Z,6.93
2017-06-24T10:53:47.112Z,6.50
2017-06-24T10:56:14.615Z,6.37
2017-06-24T10:58:42.103Z,6.97
2017-06-24T11:01:09.616Z,7.30
2017-06-24T11:03:37.107Z,6.70
2017-06-24T11:06:05.389Z,6.90
2017-06-24T11:08:32.881Z,7.27
2017-06-24T11:11:00.395Z,6.47
2017-06-24T11:13:27.913Z,6.63
2017-06-24T11:15:55.427Z,7.00
2017-06-24T11:18:22.920Z,6.70
2017-06-24T11:20:50.424Z,6.60
2017-06-24T11:23:17.907Z,6.40
2017-06-24T11:25:45.411Z,7.20
2017-06-24T11:28:12.895Z,7.40
2017-06-24T11:30:40.403Z,7.67
2017-06-24T11:33:07.892Z,7.30
2017-06-24T11:35:35.400Z,7.50
2017-06-24T11:38:02.897Z,7.70
2017-06-24T11:40:30.404Z,8.00
2017-06-24T11:42:58.663Z,8.00
2017-06-24T11:45:26.211Z,7.47
2017-06-24T11:47:53.700Z,7.63
2017-06-24T11:50:21.989Z,7.83
2017-06-24T11:52:49.493Z,7.47
2017-06-24T11:55:16.997Z,7.97
2017-06-24T11:57:45.260Z,7.20
2017-06-24T12:00:12.790Z,7.23
2017-06-24T12:02:40.287Z,8.80
2017-06-24T12:05:07.805Z,8.07
2017-06-24T12:07:35.312Z,7.97
2017-06-24T12:10:03.592Z,7.80
2017-06-24T12:12:31.855Z,7.60
2017-06-24T12:14:59.355Z,7.87
2017-06-24T12:17:26.845Z,7.43
2017-06-24T12:19:54.365Z,7.60
2017-06-24T12:22:21.860Z,7.73
2017-06-24T12:24:49.375Z,7.20
2017-06-24T12:27:16.887Z,8.33
2017-06-24T12:29:44.391Z,7.40
2017-06-24T12:32:11.884Z,8.00
2017-06-24T12:34:39.403Z,8.10
2017-06-24T12:37:07.666Z,7.70
2017-06-24T12:39:35.172Z,8.10
2017-06-24T12:42:02.663Z,8.57
2017-06-24T12:44:30.172Z,8.03
2017-06-24T12:46:57.667Z,8.80
2017-06-24T12:49:25.182Z,8.17
2017-06-24T12:51:52.675Z,8.10
2017-06-24T12:54:20.171Z,7.20
2017-06-24T12:56:47.664Z,7.37
2017-06-24T12:59:15.180Z,7.57
2017-06-24T13:01:42.658Z,8.43
2017-06-24T13:04:10.942Z,7.87
2017-06-24T13:06:38.427Z,8.37
2017-06-24T13:09:05.946Z,7.90
2017-06-24T13:11:33.438Z,6.87
2017-06-24T13:14:00.957Z,7.57
2017-06-24T13:16:28.492Z,7.73
2017-06-24T13:18:56.002Z,8.23
2017-06-24T13:21:24.255Z,7.17
2017-06-24T13:23:51.746Z,7.13
2017-06-24T13:26:19.260Z,7.63
2017-06-24T13:28:46.739Z,7.60
2017-06-24T13:31:14.250Z,7.50
2017-06-24T13:33:41.736Z,8.17
2017-06-24T13:36:09.244Z,8.23
2017-06-24T13:38:36.783Z,7.40
2017-06-24T13:41:05.057Z,8.20
2017-06-24T13:43:32.539Z,8.07
2017-06-24T13:46:00.052Z,7.20
2017-06-24T13:48:27.609Z,7.03
2017-06-24T13:50:55.115Z,7.30
2017-06-24T13:53:23.376Z,7.57
2017-06-24T13:55:51.695Z,7.30
2017-06-24T13:58:19.184Z,7.17
2017-06-24T14:00:46.684Z,7.60
2017-06-24T14:03:14.942Z,6.50
2017-06-24T14:05:42.457Z,6.80
2017-06-24T14:08:09.956Z,6.63
2017-06-24T14:10:37.474Z,6.50
2017-06-24T14:13:04.968Z,6.80
2017-06-24T14:15:32.482Z,7.13
2017-06-24T14:17:59.975Z,6.33
2017-06-24T14:20:27.562Z,7.43
2017-06-24T14:22:55.041Z,6.43
2017-06-24T14:25:22.548Z,6.73
2017-06-24T14:27:50.036Z,6.93
2017-06-24T14:30:17.546Z,6.40
2017-06-24T14:32:45.041Z,7.07
2017-06-24T14:35:12.548Z,6.93
2017-06-24T14:37:40.041Z,6.60
2017-06-24T14:40:07.560Z,6.30
2017-06-24T14:42:35.058Z,6.97
2017-06-24T14:45:02.555Z,6.30
2017-06-24T14:47:30.811Z,6.17
2017-06-24T14:49:58.315Z,6.17
2017-06-24T14:52:25.808Z,6.70
2017-06-24T14:54:53.311Z,6.60
2017-06-24T14:57:20.818Z,6.47
2017-06-24T14:59:48.324Z,6.33
2017-06-24T15:02:15.807Z,6.63
2017-06-24T15:04:43.355Z,6.47
2017-06-24T15:07:11.722Z,6.63
2017-06-24T15:09:39.233Z,5.63
2017-06-24T15:12:06.719Z,6.10
2017-06-24T15:14:34.215Z,6.77
2017-06-24T15:17:01.703Z,6.60
2017-06-24T15:19:29.207Z,6.23
2017-06-24T15:21:56.692Z,5.83
2017-06-24T15:24:24.215Z,7.30
2017-06-24T15:26:51.695Z,7.17
2017-06-24T15:29:19.208Z,6.93
2017-06-24T15:31:46.692Z,6.30
2017-06-24T15:34:14.195Z,6.03
2017-06-24T15:36:41.683Z,6.57
2017-06-24T15:39:09.184Z,6.30
2017-06-24T15:41:36.672Z,6.47
2017-06-24T15:44:04.173Z,6.50
2017-06-24T15:46:31.660Z,7.27
2017-06-24T15:48:59.164Z,7.03
2017-06-24T15:51:26.654Z,6.40
2017-06-24T15:53:54.167Z,6.70
2017-06-24T15:56:21.661Z,6.40
2017-06-24T15:58:49.171Z,6.63
2017-06-24T16:01:17.440Z,7.10
2017-06-24T16:03:44.940Z,6.83
2017-06-24T16:06:12.712Z,6.63
2017-06-24T16:08:40.216Z,5.97
2017-06-24T16:11:07.708Z,7.10
2017-06-24T16:13:35.211Z,6.90
2017-06-24T16:16:02.692Z,6.93
2017-06-24T16:18:30.204Z,7.40
2017-06-24T16:20:57.683Z,6.23
2017-06-24T16:23:25.191Z,7.00
2017-06-24T16:25:53.443Z,6.43
2017-06-24T16:28:20.955Z,6.63
2017-06-24T16:30:49.980Z,6.70
2017-06-24T16:33:17.500Z,6.70
2017-06-24T16:35:45.004Z,6.30
2017-06-24T16:38:12.507Z,6.37
2017-06-24T16:40:39.992Z,6.77
2017-06-24T16:43:07.496Z,6.40
2017-06-24T16:45:36.067Z,6.77
2017-06-24T16:48:04.365Z,6.60
2017-06-24T16:50:32.620Z,6.03
2017-06-24T16:53:00.692Z,5.93
2017-06-24T16:55:28.190Z,6.30
2017-06-24T16:57:56.465Z,6.63
2017-06-24T17:00:23.951Z,6.40
2017-06-24T17:02:51.448Z,6.23
2017-06-24T17:05:18.931Z,6.60
2017-06-24T17:07:47.203Z,6.47
2017-06-24T17:10:14.696Z,6.13
2017-06-24T17:12:42.205Z,6.53
2017-06-24T17:15:09.689Z,6.17
2017-06-24T17:17:37.878Z,6.60
2017-06-24T17:20:05.360Z,6.87
2017-06-24T17:22:32.869Z,6.70
2017-06-24T17:25:00.359Z,6.30
2017-06-24T17:27:27.868Z,5.77
2017-06-24T17:29:55.356Z,5.87
2017-06-24T17:32:23.635Z,6.80
2017-06-24T17:34:51.883Z,5.67
2017-06-24T17:37:19.390Z,6.90
2017-06-24T17:39:46.871Z,6.80
2017-06-24T17:42:14.373Z,6.20
2017-06-24T17:44:41.859Z,6.10
2017-06-24T17:47:09.364Z,6.30
2017-06-24T17:49:36.844Z,6.37
2017-06-24T17:52:04.348Z,6.10
2017-06-24T17:54:31.831Z,6.00
2017-06-24T17:56:59.328Z,5.93
2017-06-24T17:59:26.813Z,5.57
2017-06-24T18:01:54.323Z,6.23
2017-06-24T18:04:21.804Z,6.17
2017-06-24T18:06:49.324Z,6.30
2017-06-24T18:09:16.803Z,6.23
2017-06-24T18:11:44.349Z,5.63
2017-06-24T18:14:11.833Z,6.27
2017-06-24T18:16:39.345Z,6.00
2017-06-24T18:19:06.832Z,5.93
2017-06-24T18:21:34.338Z,5.70
2017-06-24T18:24:02.596Z,6.70
2017-06-24T18:26:30.875Z,6.50
2017-06-24T18:28:58.361Z,5.80
2017-06-24T18:31:25.867Z,5.70
2017-06-24T18:33:54.067Z,6.80
2017-06-24T18:36:21.576Z,5.60
2017-06-24T18:38:49.075Z,5.57
2017-06-24T18:41:16.588Z,5.57
2017-06-24T18:43:44.076Z,6.00
2017-06-24T18:46:11.845Z,5.97
2017-06-24T18:48:39.343Z,5.90
2017-06-24T18:51:07.614Z,6.00
2017-06-24T18:53:35.129Z,6.30
2017-06-24T18:56:02.611Z,5.60
2017-06-24T18:58:30.127Z,4.73
2017-06-24T19:00:57.616Z,6.00
2017-06-24T19:03:25.128Z,6.10
2017-06-24T19:06:31.273Z,5.60
2017-06-24T19:08:59.531Z,5.80
2017-06-24T19:11:27.035Z,5.60
2017-06-24T19:13:54.549Z,5.70
2017-06-24T19:16:22.035Z,5.87
2017-06-24T19:18:50.311Z,5.50
2017-06-24T19:21:18.560Z,5.50
2017-06-24T19:23:46.067Z,5.50
2017-06-24T19:26:13.566Z,5.83
2017-06-24T19:28:41.088Z,5.60
2017-06-24T19:31:08.579Z,5.83
2017-06-24T19:33:36.097Z,5.50
2017-06-24T19:36:03.584Z,4.90
2017-06-24T19:38:31.103Z,5.47
2017-06-24T19:40:59.379Z,5.00
2017-06-24T19:43:27.675Z,5.00
2017-06-24T19:45:55.170Z,5.43
2017-06-24T19:48:23.697Z,4.90
2017-06-24T19:50:51.218Z,5.37
2017-06-24T19:53:18.744Z,5.43
2017-06-24T19:55:46.293Z,4.87
2017-06-24T19:58:13.832Z,5.70
2017-06-24T20:00:42.100Z,5.77
2017-06-24T20:03:09.616Z,5.40
2017-06-24T20:05:37.108Z,4.97
2017-06-24T20:08:04.630Z,4.90
2017-06-24T20:10:32.123Z,5.10
2017-06-24T20:12:59.635Z,5.40
2017-06-24T20:15:27.124Z,4.97
2017-06-24T20:17:54.645Z,5.37
2017-06-24T20:20:22.140Z,4.90
2017-06-24T20:22:49.651Z,4.90
2017-06-24T20:25:17.911Z,4.70
2017-06-24T20:27:45.420Z,4.97
2017-06-24T20:30:12.920Z,4.50
2017-06-24T20:32:40.439Z,4.93
2017-06-24T20:35:07.936Z,5.20
2017-06-24T20:37:35.443Z,4.17
2017-06-24T20:40:02.931Z,4.90
2017-06-24T20:42:30.439Z,4.90
2017-06-24T20:44:57.948Z,5.20
2017-06-24T20:47:25.464Z,5.03
2017-06-24T20:49:53.733Z,4.87
2017-06-24T20:52:22.035Z,6.10
2017-06-24T20:54:49.528Z,4.93
2017-06-24T20:57:17.036Z,5.37
2017-06-24T20:59:44.524Z,5.67
2017-06-24T21:02:12.047Z,5.53
2017-06-24T21:04:39.555Z,6.03
2017-06-24T21:07:07.288Z,5.00
2017-06-24T21:09:34.779Z,4.70
2017-06-24T21:12:02.293Z,5.60
2017-06-24T21:14:29.799Z,5.70
2017-06-24T21:16:57.323Z,5.30
2017-06-24T21:19:25.591Z,5.40
2017-06-24T21:21:53.873Z,5.00
2017-06-24T21:24:22.183Z,4.83
2017-06-24T21:26:49.705Z,5.73
2017-06-24T21:29:17.971Z,5.00
2017-06-24T21:31:46.269Z,5.23
2017-06-24T21:34:13.769Z,5.10
2017-06-24T21:36:41.281Z,4.70
2017-06-24T21:39:09.548Z,5.20
2017-06-24T21:41:37.059Z,4.90
2017-06-24T21:44:04.552Z,5.23
2017-06-24T21:46:32.063Z,5.10
2017-06-24T21:48:59.568Z,5.53
2017-06-24T21:51:27.100Z,5.90
2017-06-24T21:53:54.616Z,5.10
2017-06-24T21:56:22.907Z,5.43
2017-06-24T21:58:50.399Z,5.20
2017-06-24T22:01:17.942Z,5.20
2017-06-24T22:03:45.441Z,5.50
2017-06-24T22:06:12.968Z,5.50
2017-06-24T22:08:40.466Z,5.80
2017-06-24T22:11:07.996Z,4.60
2017-06-24T22:13:35.488Z,5.30
2017-06-24T22:16:03.035Z,4.70
2017-06-24T22:18:30.548Z,5.17
2017-06-24T22:20:58.073Z,5.50
2017-06-24T22:23:25.577Z,5.93
2017-06-24T22:25:53.105Z,5.70
2017-06-24T22:28:21.372Z,4.87
2017-06-24T22:30:48.897Z,5.00
2017-06-24T22:33:16.400Z,6.00
2017-06-24T22:35:44.667Z,5.23
2017-06-24T22:38:12.159Z,5.47
2017-06-24T22:40:39.663Z,4.70
2017-06-24T22:43:07.155Z,4.77
2017-06-24T22:45:35.431Z,5.43
2017-06-24T22:48:03.691Z,5.03
2017-06-24T22:50:31.197Z,4.87
2017-06-24T22:52:58.680Z,5.33
2017-06-24T22:55:26.184Z,4.47
2017-06-24T22:57:54.436Z,5.40
2017-06-24T23:00:22.343Z,4.63
2017-06-24T23:02:49.837Z,5.00
2017-06-24T23:05:17.323Z,4.97
2017-06-24T23:07:44.832Z,5.00
2017-06-24T23:10:12.348Z,5.60
2017-06-24T23:12:40.139Z,5.30
2017-06-24T23:15:07.631Z,4.73
2017-06-24T23:17:35.146Z,4.77
2017-06-24T23:20:03.418Z,5.33
2017-06-24T23:22:30.909Z,4.77
2017-06-24T23:24:58.671Z,5.00
2017-06-24T23:27:26.168Z,5.43
2017-06-24T23:29:53.653Z,5.03
2017-06-24T23:32:21.178Z,4.90
2017-06-24T23:34:48.683Z,4.53
2017-06-24T23:37:16.470Z,4.60
2017-06-24T23:39:43.963Z,5.00
2017-06-24T23:42:11.676Z,5.00
2017-06-24T23:44:39.956Z,4.90
2017-06-24T23:47:07.444Z,4.80
2017-06-24T23:49:35.263Z,4.67
2017-06-24T23:52:02.770Z,4.90
2017-06-24T23:54:30.260Z,4.80
2017-06-24T23:56:57.780Z,5.20
2017-06-24T23:59:25.274Z,4.93
